Time;durP1;ratioP1;P1;durP2;ratioP2;P2;SDS_P1;SDS_P2;PMS_P1;PMS_P2;Temp;Humidity;BMP_temperature;BMP_pressure;BME280_temperature;BME280_humidity;BME280_pressure;Samples;Min_cycle;Max_cycle;Signal;HPM_P1;HPM_P2
2022/04/03 00:02:07;;;;;;;;;;;1.20;99.90;;;;;;6105318;23;20391;-86
2022/04/03 00:04:34;;;;;;;;;;;1.20;99.90;;;;;;6080449;23;19982;-87
2022/04/03 00:07:02;;;;;;;;;;;1.20;99.90;;;;;;6105861;23;19928;-87
2022/04/03 00:09:30;;;;;;;;;;;-0.40;99.90;;;;;;6106614;23;19929;-88
2022/04/03 00:11:58;;;;;;;;;;;1.20;99.90;;;;;;6129951;23;19920;-88
2022/04/03 00:14:26;;;;;;;;;;;1.20;99.90;;;;;;6103561;23;19924;-87
2022/04/03 00:16:54;;;;;;;;;;;1.20;99.90;;;;;;6103007;23;19927;-87
2022/04/03 00:19:23;;;;;;;;;;;1.10;99.90;;;;;;6082717;23;19921;-87
2022/04/03 00:21:52;;;;;;;;;;;2.30;99.90;;;;;;6107980;23;19931;-88
2022/04/03 00:24:20;;;;;;;;;;;0.80;99.90;;;;;;6108819;23;19917;-88
2022/04/03 00:26:47;;;;;;;;;;;1.10;99.90;;;;;;6111714;23;19928;-88
2022/04/03 00:29:15;;;;;;;;;;;1.00;99.90;;;;;;6084379;23;19921;-87
2022/04/03 00:31:45;;;;;;;;;;;1.00;99.90;;;;;;6134653;23;19927;-87
2022/04/03 00:34:14;;;;;;;;;;;1.00;99.90;;;;;;6108984;23;19935;-88
2022/04/03 00:36:42;;;;;;;;;;;1.00;99.90;;;;;;6107571;23;19921;-87
2022/04/03 00:39:10;;;;;;;;;;;1.00;99.90;;;;;;6083223;23;19925;-86
2022/04/03 00:41:38;;;;;;;;;;;0.90;99.90;;;;;;6136186;23;19921;-88
2022/04/03 00:44:05;;;;;;;;;;;1.00;99.90;;;;;;6083127;23;19921;-88
2022/04/03 00:46:36;;;;;;;;;;;-0.40;99.90;;;;;;6132666;23;19929;-88
2022/04/03 00:49:04;;;;;;;;;;;1.30;99.90;;;;;;6107976;23;19928;-87
2022/04/03 00:51:33;;;;;;;;;;;0.90;99.90;;;;;;6062895;23;19929;-87
2022/04/03 00:54:01;;;;;;;;;;;0.90;99.90;;;;;;6136444;23;19931;-86
2022/04/03 00:56:30;;;;;;;;;;;0.90;99.90;;;;;;6086485;23;19921;-87
2022/04/03 00:58:58;;;;;;;;;;;1.00;99.90;;;;;;6111133;23;20550;-87
2022/04/03 01:01:26;;;;;;;;;;;0.90;99.90;;;;;;6134153;23;20086;-88
2022/04/03 01:03:54;;;;;;;;;;;0.90;99.90;;;;;;6138286;23;19943;-88
2022/04/03 01:06:21;;;;;;;;;;;0.80;99.90;;;;;;6084947;23;19921;-88
2022/04/03 01:08:50;;;;;;;;;;;1.50;99.90;;;;;;6110575;23;19921;-86
2022/04/03 01:11:20;;;;;;;;;;;0.80;99.90;;;;;;6108485;23;19925;-87
2022/04/03 01:13:49;;;;;;;;;;;0.80;99.90;;;;;;6089444;23;19921;-87
2022/04/03 01:16:18;;;;;;;;;;;0.80;99.90;;;;;;6118209;23;19920;-88
2022/04/03 01:18:46;;;;;;;;;;;0.70;99.90;;;;;;6084460;23;19921;-87
2022/04/03 01:21:16;;;;;;;;;;;0.60;99.90;;;;;;6106141;23;19921;-87
2022/04/03 01:23:46;;;;;;;;;;;0.80;99.90;;;;;;6083848;23;19921;-86
2022/04/03 01:26:15;;;;;;;;;;;0.70;99.90;;;;;;6083219;23;19925;-87
2022/04/03 01:28:43;;;;;;;;;;;0.70;99.90;;;;;;6132977;23;19925;-87
2022/04/03 01:31:11;;;;;;;;;;;0.60;99.90;;;;;;6107672;23;19949;-87
2022/04/03 01:33:38;;;;;;;;;;;1.60;99.90;;;;;;6082507;23;19925;-87
2022/04/03 01:36:07;;;;;;;;;;;0.60;99.90;;;;;;6083575;23;19976;-87
2022/04/03 01:38:35;;;;;;;;;;;0.60;99.90;;;;;;6132773;23;20230;-88
2022/04/03 01:41:04;;;;;;;;;;;0.60;99.90;;;;;;6107665;23;19935;-87
2022/04/03 01:43:32;;;;;;;;;;;0.60;99.90;;;;;;6106283;23;19924;-86
2022/04/03 01:45:59;;;;;;;;;;;0.60;99.90;;;;;;6132725;23;19921;-87
2022/04/03 01:48:28;;;;;;;;;;;0.60;99.90;;;;;;6084200;23;19921;-87
2022/04/03 01:50:57;;;;;;;;;;;0.60;99.90;;;;;;6130479;23;19925;-88
2022/04/03 01:53:26;;;;;;;;;;;0.50;99.90;;;;;;6108483;23;19921;-88
2022/04/03 01:55:58;;;;;;;;;;;1.60;99.90;;;;;;6085596;23;19929;-88
2022/04/03 01:58:26;;;;;;;;;;;0.60;99.90;;;;;;6109730;23;19931;-88
2022/04/03 02:00:53;;;;;;;;;;;0.50;99.90;;;;;;6085192;23;20345;-87
2022/04/03 02:03:21;;;;;;;;;;;2.40;99.90;;;;;;6109612;23;20008;-88
2022/04/03 02:05:49;;;;;;;;;;;0.50;99.90;;;;;;6133368;23;19931;-88
2022/04/03 02:08:17;;;;;;;;;;;0.50;99.90;;;;;;6134902;23;19925;-87
2022/04/03 02:10:45;;;;;;;;;;;0.50;99.90;;;;;;6085517;23;19925;-87
2022/04/03 02:13:13;;;;;;;;;;;0.40;99.90;;;;;;6109443;23;20252;-89
2022/04/03 02:15:41;;;;;;;;;;;0.40;99.90;;;;;;6136734;23;19931;-88
2022/04/03 02:18:11;;;;;;;;;;;0.40;99.90;;;;;;6131118;23;19956;-88
2022/04/03 02:20:39;;;;;;;;;;;0.70;99.90;;;;;;6112111;23;19928;-87
2022/04/03 02:23:07;;;;;;;;;;;0.40;99.90;;;;;;6131393;23;19943;-87
2022/04/03 02:25:37;;;;;;;;;;;0.10;99.90;;;;;;6084437;23;19928;-87
2022/04/03 02:28:06;;;;;;;;;;;0.50;99.90;;;;;;6108148;23;19931;-88
2022/04/03 02:30:34;;;;;;;;;;;0.30;99.90;;;;;;6084823;23;19936;-86
2022/04/03 02:33:01;;;;;;;;;;;0.30;99.90;;;;;;6136393;23;19924;-87
2022/04/03 02:35:29;;;;;;;;;;;0.30;99.90;;;;;;6110831;23;19935;-88
2022/04/03 02:37:59;;;;;;;;;;;0.30;99.90;;;;;;6136684;23;19921;-87
2022/04/03 02:40:27;;;;;;;;;;;0.20;99.90;;;;;;6110203;23;20245;-88
2022/04/03 02:42:54;;;;;;;;;;;1.70;99.90;;;;;;6133288;23;19927;-87
2022/04/03 02:45:22;;;;;;;;;;;0.20;99.90;;;;;;6086112;23;20273;-86
2022/04/03 02:47:54;;;;;;;;;;;0.20;99.90;;;;;;6144538;23;19944;-88
2022/04/03 02:50:24;;;;;;;;;;;0.20;99.90;;;;;;6137538;23;19921;-88
2022/04/03 02:52:54;;;;;;;;;;;0.20;99.90;;;;;;6085386;23;19928;-88
2022/04/03 02:55:24;;;;;;;;;;;0.20;99.90;;;;;;6108891;23;19925;-87
2022/04/03 02:57:55;;;;;;;;;;;0.20;99.90;;;;;;6109274;23;19921;-87
2022/04/03 03:00:24;;;;;;;;;;;0.20;99.90;;;;;;6084077;23;20365;-87
2022/04/03 03:02:52;;;;;;;;;;;0.10;99.90;;;;;;6083967;23;19925;-87
2022/04/03 03:05:19;;;;;;;;;;;0.10;99.90;;;;;;6084520;23;19925;-86
2022/04/03 03:07:48;;;;;;;;;;;1.50;99.90;;;;;;6083135;23;19925;-86
2022/04/03 03:10:17;;;;;;;;;;;0.20;99.90;;;;;;6107634;23;20086;-87
2022/04/03 03:12:46;;;;;;;;;;;2.00;99.90;;;;;;6129851;23;19921;-87
2022/04/03 03:15:14;;;;;;;;;;;0.10;99.90;;;;;;6082952;23;19940;-88
2022/04/03 03:17:44;;;;;;;;;;;0.40;99.90;;;;;;6109387;23;19947;-88
2022/04/03 03:20:17;;;;;;;;;;;0.00;99.90;;;;;;6136797;23;19921;-85
2022/04/03 03:22:45;;;;;;;;;;;-1.20;99.90;;;;;;6130181;23;19921;-87
2022/04/03 03:25:13;;;;;;;;;;;0.00;99.90;;;;;;6139690;23;19927;-86
2022/04/03 03:27:41;;;;;;;;;;;0.00;99.90;;;;;;6116471;23;19925;-85
2022/04/03 03:30:11;;;;;;;;;;;0.00;99.90;;;;;;6116239;23;19924;-86
2022/04/03 03:32:39;;;;;;;;;;;-0.10;99.90;;;;;;6117438;23;19909;-87
2022/04/03 03:35:07;;;;;;;;;;;0.00;99.90;;;;;;6113914;23;20453;-86
2022/04/03 03:37:35;;;;;;;;;;;0.00;99.90;;;;;;6104495;23;20509;-86
2022/04/03 03:40:03;;;;;;;;;;;1.50;99.90;;;;;;6097031;23;19936;-87
2022/04/03 03:42:31;;;;;;;;;;;0.00;99.90;;;;;;6101394;23;19925;-86
2022/04/03 03:44:59;;;;;;;;;;;0.00;99.90;;;;;;6097640;23;19972;-86
2022/04/03 03:47:27;;;;;;;;;;;0.00;99.90;;;;;;6127547;23;19929;-87
2022/04/03 03:49:55;;;;;;;;;;;0.00;99.90;;;;;;6097771;23;19928;-87
2022/04/03 03:52:22;;;;;;;;;;;-0.10;99.90;;;;;;6094870;23;20334;-89
2022/04/03 03:54:51;;;;;;;;;;;-0.10;99.90;;;;;;6072097;23;19928;-87
2022/04/03 03:57:18;;;;;;;;;;;0.50;99.90;;;;;;6096289;23;19928;-87
2022/04/03 03:59:47;;;;;;;;;;;-0.10;99.90;;;;;;6122951;23;19952;-86
2022/04/03 04:02:15;;;;;;;;;;;-0.20;99.90;;;;;;6094444;23;20238;-87
2022/04/03 04:04:43;;;;;;;;;;;-0.10;99.90;;;;;;6122751;23;20254;-87
2022/04/03 04:07:10;;;;;;;;;;;-0.30;99.90;;;;;;6072988;23;19921;-87
2022/04/03 04:09:39;;;;;;;;;;;0.00;99.90;;;;;;6074125;23;19921;-87
2022/04/03 04:12:06;;;;;;;;;;;0.60;99.90;;;;;;6072397;23;19969;-86
2022/04/03 04:14:38;;;;;;;;;;;-0.20;99.90;;;;;;6125253;23;19931;-87
2022/04/03 04:17:07;;;;;;;;;;;-0.20;99.90;;;;;;6097472;23;19928;-87
2022/04/03 04:19:36;;;;;;;;;;;-0.20;99.90;;;;;;6098053;23;19921;-87
2022/04/03 04:22:03;;;;;;;;;;;0.80;99.90;;;;;;6127135;23;19929;-86
2022/04/03 04:24:34;;;;;;;;;;;-0.30;99.90;;;;;;6100092;23;19936;-87
2022/04/03 04:27:02;;;;;;;;;;;-0.30;99.90;;;;;;6105608;23;19920;-86
2022/04/03 04:29:29;;;;;;;;;;;-0.30;99.90;;;;;;6100546;23;19924;-86
2022/04/03 04:31:58;;;;;;;;;;;-0.30;99.90;;;;;;6100316;23;19925;-86
2022/04/03 04:34:25;;;;;;;;;;;-0.40;99.90;;;;;;6101818;23;19929;-87
2022/04/03 04:36:54;;;;;;;;;;;1.20;99.90;;;;;;6130117;23;19921;-87
2022/04/03 04:39:21;;;;;;;;;;;1.40;99.90;;;;;;6125837;23;19921;-87
2022/04/03 04:41:49;;;;;;;;;;;-0.20;99.90;;;;;;6104430;23;19931;-87
2022/04/03 04:44:16;;;;;;;;;;;0.10;99.90;;;;;;6127557;23;19925;-85
2022/04/03 04:46:44;;;;;;;;;;;-0.30;99.90;;;;;;6104645;23;19982;-88
2022/04/03 04:49:11;;;;;;;;;;;0.20;99.90;;;;;;6115264;23;19925;-87
2022/04/03 04:51:39;;;;;;;;;;;-0.20;99.90;;;;;;6142383;23;20338;-87
2022/04/03 04:54:08;;;;;;;;;;;-0.40;99.90;;;;;;6093031;23;19924;-86
2022/04/03 04:56:36;;;;;;;;;;;-0.50;99.90;;;;;;6116472;23;19931;-86
2022/04/03 04:59:03;;;;;;;;;;;-0.50;99.90;;;;;;6120264;23;19931;-87
2022/04/03 05:01:32;;;;;;;;;;;-0.50;99.90;;;;;;6144109;23;19924;-86
2022/04/03 05:03:59;;;;;;;;;;;-0.50;99.90;;;;;;6141029;23;19923;-86
2022/04/03 05:06:28;;;;;;;;;;;-0.50;99.90;;;;;;6115404;23;19969;-87
2022/04/03 05:08:56;;;;;;;;;;;-0.50;99.90;;;;;;6135763;23;19935;-87
2022/04/03 05:11:24;;;;;;;;;;;-0.50;99.90;;;;;;6099341;23;19928;-86
2022/04/03 05:13:52;;;;;;;;;;;-0.50;99.90;;;;;;6100037;23;19921;-87
2022/04/03 05:16:19;;;;;;;;;;;-0.40;99.90;;;;;;6127940;23;19932;-86
2022/04/03 05:18:47;;;;;;;;;;;-0.40;99.90;;;;;;6125226;23;20281;-87
2022/04/03 05:21:15;;;;;;;;;;;-0.50;99.90;;;;;;6129908;23;19932;-87
2022/04/03 05:23:43;;;;;;;;;;;-0.60;99.90;;;;;;6110028;23;20301;-86
2022/04/03 05:26:10;;;;;;;;;;;-0.50;99.90;;;;;;6107265;23;19931;-86
2022/04/03 05:28:40;;;;;;;;;;;-0.50;99.90;;;;;;6131824;23;19921;-86
2022/04/03 05:31:08;;;;;;;;;;;-0.30;99.90;;;;;;6104147;23;19927;-86
2022/04/03 05:33:36;;;;;;;;;;;-1.60;99.90;;;;;;6105099;23;19921;-85
2022/04/03 05:36:04;;;;;;;;;;;-0.60;99.90;;;;;;6105281;23;20285;-87
2022/04/03 05:38:32;;;;;;;;;;;-0.50;99.90;;;;;;6103794;23;19927;-86
2022/04/03 05:41:01;;;;;;;;;;;-0.50;99.90;;;;;;6105378;23;19920;-86
2022/04/03 05:43:30;;;;;;;;;;;1.30;99.90;;;;;;6141746;23;19921;-85
2022/04/03 05:45:58;;;;;;;;;;;-0.50;99.90;;;;;;6131836;23;19931;-87
2022/04/03 05:48:26;;;;;;;;;;;-0.60;99.90;;;;;;6115063;23;20145;-87
2022/04/03 05:50:53;;;;;;;;;;;-0.50;99.90;;;;;;6108449;23;20455;-86
2022/04/03 05:53:21;;;;;;;;;;;0.10;99.90;;;;;;6135149;23;19921;-86
2022/04/03 05:55:54;;;;;;;;;;;-0.20;99.90;;;;;;6136177;23;19949;-86
2022/04/03 05:58:24;;;;;;;;;;;-0.50;99.90;;;;;;6128837;23;19925;-86
2022/04/03 06:00:51;;;;;;;;;;;-0.50;99.90;;;;;;6098718;23;19921;-86
2022/04/03 06:03:18;;;;;;;;;;;-0.30;99.90;;;;;;6125292;23;19936;-86
2022/04/03 06:05:47;;;;;;;;;;;-0.20;99.90;;;;;;6128966;23;19924;-86
2022/04/03 06:08:15;;;;;;;;;;;-0.40;99.90;;;;;;6101687;23;19928;-86
2022/04/03 06:10:43;;;;;;;;;;;-0.30;99.90;;;;;;6100801;23;19925;-86
2022/04/03 06:13:14;;;;;;;;;;;-0.40;99.90;;;;;;6125161;23;19921;-86
2022/04/03 06:15:43;;;;;;;;;;;-0.20;99.90;;;;;;6101179;23;19936;-86
2022/04/03 06:18:12;;;;;;;;;;;-0.20;99.90;;;;;;6076540;23;20166;-86
2022/04/03 06:20:39;;;;;;;;;;;-0.20;99.90;;;;;;6098731;23;19921;-86
2022/04/03 06:23:10;;;;;;;;;;;-0.10;99.90;;;;;;6099864;23;19935;-87
2022/04/03 06:25:41;;;;;;;;;;;-0.10;99.90;;;;;;6100170;23;19936;-85
2022/04/03 06:28:10;;;;;;;;;;;0.00;99.90;;;;;;6077023;23;19921;-87
2022/04/03 06:30:37;;;;;;;;;;;0.00;99.90;;;;;;6103372;23;20016;-85
2022/04/03 06:33:05;;;;;;;;;;;0.10;99.90;;;;;;6052656;23;20278;-84
2022/04/03 06:35:32;;;;;;;;;;;0.10;99.90;;;;;;6076245;23;19921;-86
2022/04/03 06:38:01;;;;;;;;;;;0.50;99.90;;;;;;6124438;23;19921;-87
2022/04/03 06:40:29;;;;;;;;;;;0.70;99.90;;;;;;6122768;23;19929;-86
2022/04/03 06:42:57;;;;;;;;;;;1.60;99.90;;;;;;6099126;23;19932;-86
2022/04/03 06:45:25;;;;;;;;;;;0.40;99.90;;;;;;6100226;23;19931;-86
2022/04/03 06:47:53;;;;;;;;;;;0.50;99.90;;;;;;6101570;23;19925;-86
2022/04/03 06:50:20;;;;;;;;;;;0.60;99.90;;;;;;6125969;23;19928;-86
2022/04/03 06:52:48;;;;;;;;;;;0.90;99.90;;;;;;6077442;23;19921;-86
2022/04/03 06:55:15;;;;;;;;;;;1.40;99.90;;;;;;6098205;23;19928;-87
2022/04/03 06:57:43;;;;;;;;;;;0.80;99.90;;;;;;6078022;23;19921;-86
2022/04/03 07:00:13;;;;;;;;;;;0.80;99.90;;;;;;6126205;23;19925;-87
2022/04/03 07:02:43;;;;;;;;;;;0.90;99.90;;;;;;6101647;23;19925;-86
2022/04/03 07:05:10;;;;;;;;;;;1.00;99.90;;;;;;6101541;23;19921;-86
2022/04/03 07:07:39;;;;;;;;;;;1.00;99.90;;;;;;6056691;23;20248;-87
2022/04/03 07:10:09;;;;;;;;;;;0.10;99.90;;;;;;6132988;23;20253;-86
2022/04/03 07:12:37;;;;;;;;;;;1.20;99.90;;;;;;6142971;23;19920;-87
2022/04/03 07:15:12;;;;;;;;;;;1.30;99.90;;;;;;6131992;23;19921;-87
2022/04/03 07:17:41;;;;;;;;;;;1.30;99.90;;;;;;6127105;23;19924;-86
2022/04/03 07:20:10;;;;;;;;;;;1.50;99.90;;;;;;6103192;23;19925;-87
2022/04/03 07:22:37;;;;;;;;;;;1.50;99.90;;;;;;6122415;23;20468;-87
2022/04/03 07:25:06;;;;;;;;;;;1.60;99.90;;;;;;6099208;23;19921;-87
2022/04/03 07:27:35;;;;;;;;;;;1.70;99.90;;;;;;6099813;23;19925;-87
2022/04/03 07:30:04;;;;;;;;;;;1.80;99.90;;;;;;6104569;23;20326;-87
2022/04/03 07:32:38;;;;;;;;;;;1.90;99.90;;;;;;6098300;23;20112;-87
2022/04/03 07:35:07;;;;;;;;;;;2.00;99.90;;;;;;6099717;23;19921;-86
2022/04/03 07:37:35;;;;;;;;;;;2.10;99.90;;;;;;6099064;23;19931;-87
2022/04/03 07:40:04;;;;;;;;;;;2.20;99.90;;;;;;6105540;23;19929;-86
2022/04/03 07:42:31;;;;;;;;;;;2.30;99.90;;;;;;6073282;23;19932;-88
2022/04/03 07:45:01;;;;;;;;;;;2.40;99.90;;;;;;6122418;23;19920;-86
2022/04/03 07:47:29;;;;;;;;;;;2.60;99.90;;;;;;6126355;23;19921;-86
2022/04/03 07:49:56;;;;;;;;;;;2.60;99.90;;;;;;6095888;23;19935;-87
2022/04/03 07:52:25;;;;;;;;;;;2.60;99.90;;;;;;6122114;23;19925;-86
2022/04/03 07:54:52;;;;;;;;;;;2.90;99.90;;;;;;6124527;23;19924;-86
2022/04/03 07:57:20;;;;;;;;;;;2.80;99.90;;;;;;6102112;23;19936;-87
2022/04/03 07:59:47;;;;;;;;;;;2.80;99.90;;;;;;6124223;23;19940;-86
2022/04/03 08:02:16;;;;;;;;;;;3.00;99.90;;;;;;6101077;23;19921;-87
2022/04/03 08:04:43;;;;;;;;;;;3.00;99.90;;;;;;6101110;23;20265;-87
2022/04/03 08:07:12;;;;;;;;;;;2.90;99.90;;;;;;6053015;23;19932;-85
2022/04/03 08:09:40;;;;;;;;;;;3.10;99.90;;;;;;6101938;23;19920;-87
2022/04/03 08:12:08;;;;;;;;;;;3.20;99.90;;;;;;6077586;23;19924;-88
2022/04/03 08:14:38;;;;;;;;;;;3.30;99.90;;;;;;6103791;23;19928;-87
2022/04/03 08:17:07;;;;;;;;;;;3.30;99.90;;;;;;6102953;23;19925;-85
2022/04/03 08:19:35;;;;;;;;;;;3.40;99.90;;;;;;6075533;23;19928;-86
2022/04/03 08:22:03;;;;;;;;;;;3.50;99.90;;;;;;6124420;23;19928;-86
2022/04/03 08:24:32;;;;;;;;;;;3.60;99.90;;;;;;6101132;23;19925;-87
2022/04/03 08:27:00;;;;;;;;;;;3.70;99.90;;;;;;6102461;23;19921;-85
2022/04/03 08:29:28;;;;;;;;;;;3.80;99.90;;;;;;6099758;23;19924;-88
2022/04/03 08:31:58;;;;;;;;;;;3.90;99.90;;;;;;6076830;23;19931;-88
2022/04/03 08:34:26;;;;;;;;;;;3.90;99.90;;;;;;6077799;23;20258;-86
2022/04/03 08:37:11;;;;;;;;;;;4.00;99.90;;;;;;6101156;23;19932;-88
2022/04/03 08:39:38;;;;;;;;;;;4.20;99.90;;;;;;6104391;23;19932;-88
2022/04/03 08:42:07;;;;;;;;;;;4.30;99.90;;;;;;6099470;23;19925;-89
2022/04/03 08:44:34;;;;;;;;;;;4.50;99.90;;;;;;6100357;23;19936;-88
2022/04/03 08:47:05;;;;;;;;;;;4.50;99.90;;;;;;6105812;23;19925;-90
2022/04/03 08:49:35;;;;;;;;;;;4.60;99.90;;;;;;6127929;23;19921;-89
2022/04/03 08:52:04;;;;;;;;;;;4.60;99.90;;;;;;6132155;23;19921;-89
2022/04/03 08:54:33;;;;;;;;;;;4.80;99.90;;;;;;6104538;23;19932;-88
2022/04/03 08:57:00;;;;;;;;;;;4.90;99.90;;;;;;6100655;23;19929;-86
2022/04/03 08:59:29;;;;;;;;;;;5.00;99.90;;;;;;6103755;23;19932;-91
2022/04/03 09:01:56;;;;;;;;;;;5.10;99.90;;;;;;6132463;23;19932;-89
2022/04/03 09:04:27;;;;;;;;;;;5.10;99.90;;;;;;6104183;23;19928;-86
2022/04/03 09:06:56;;;;;;;;;;;5.20;99.90;;;;;;6133836;23;19928;-90
2022/04/03 09:09:24;;;;;;;;;;;5.30;99.90;;;;;;6077332;23;19928;-85
2022/04/03 09:12:14;;;;;;;;;;;5.40;99.90;;;;;;6131038;23;20308;-88
2022/04/03 09:14:44;;;;;;;;;;;5.60;99.90;;;;;;6101321;23;19921;-89
2022/04/03 09:17:12;;;;;;;;;;;5.60;99.90;;;;;;6127934;23;19956;-87
2022/04/03 09:19:41;;;;;;;;;;;5.70;99.90;;;;;;6101520;23;19928;-85
2022/04/03 09:22:08;;;;;;;;;;;5.80;99.90;;;;;;6104313;23;19921;-88
2022/04/03 09:24:46;;;;;;;;;;;5.80;99.90;;;;;;6125887;23;19928;-90
2022/04/03 09:27:13;;;;;;;;;;;5.90;99.90;;;;;;6106715;23;20351;-89
2022/04/03 09:29:45;;;;;;;;;;;6.00;99.90;;;;;;6102863;23;20348;-89
2022/04/03 09:32:15;;;;;;;;;;;6.10;99.90;;;;;;6103010;23;19931;-86
2022/04/03 09:34:45;;;;;;;;;;;6.20;99.90;;;;;;6127600;23;19925;-86
2022/04/03 09:37:15;;;;;;;;;;;6.20;99.90;;;;;;6104373;23;19932;-87
2022/04/03 09:39:46;;;;;;;;;;;6.30;99.90;;;;;;6129416;23;19931;-87
2022/04/03 09:42:15;;;;;;;;;;;6.40;99.90;;;;;;6069276;23;19925;-87
2022/04/03 09:44:44;;;;;;;;;;;6.40;99.90;;;;;;6068416;23;19929;-87
2022/04/03 09:47:17;;;;;;;;;;;6.40;99.90;;;;;;6097725;23;19922;-86
2022/04/03 09:49:56;;;;;;;;;;;6.40;99.90;;;;;;6076267;23;19918;-86
2022/04/03 09:52:33;;;;;;;;;;;6.40;99.90;;;;;;6079638;23;19932;-86
2022/04/03 09:55:20;;;;;;;;;;;6.50;99.90;;;;;;6078528;23;19930;-87
2022/04/03 09:57:49;;;;;;;;;;;6.50;99.90;;;;;;6074292;23;20462;-88
2022/04/03 10:00:38;;;;;;;;;;;6.60;99.90;;;;;;6047929;23;19922;-88
2022/04/03 10:03:05;;;;;;;;;;;6.50;99.90;;;;;;6071123;23;19928;-88
2022/04/03 10:05:36;;;;;;;;;;;6.50;99.90;;;;;;6069582;23;19929;-87
2022/04/03 10:08:06;;;;;;;;;;;6.40;99.90;;;;;;6068710;23;19937;-86
2022/04/03 10:10:35;;;;;;;;;;;6.40;99.90;;;;;;6070144;23;19952;-85
2022/04/03 10:13:05;;;;;;;;;;;6.40;99.90;;;;;;6091988;23;19922;-86
2022/04/03 10:15:34;;;;;;;;;;;6.40;99.90;;;;;;6070358;23;19925;-86
2022/04/03 10:18:02;;;;;;;;;;;6.50;99.90;;;;;;6092950;23;19937;-86
2022/04/03 10:20:30;;;;;;;;;;;6.60;99.90;;;;;;6069367;23;19925;-90
2022/04/03 10:23:05;;;;;;;;;;;6.70;99.90;;;;;;6070449;23;19922;-87
2022/04/03 10:25:38;;;;;;;;;;;7.00;99.90;;;;;;6070119;23;19932;-86
2022/04/03 10:28:07;;;;;;;;;;;7.10;99.90;;;;;;6068328;23;19932;-86
2022/04/03 10:30:38;;;;;;;;;;;7.30;99.90;;;;;;6093862;23;19928;-90
2022/04/03 10:33:08;;;;;;;;;;;7.50;98.70;;;;;;6070157;23;19925;-86
2022/04/03 10:35:36;;;;;;;;;;;7.60;98.70;;;;;;6046658;23;19926;-88
2022/04/03 10:38:05;;;;;;;;;;;7.80;99.20;;;;;;6071110;23;19922;-88
2022/04/03 10:40:35;;;;;;;;;;;8.00;99.30;;;;;;6082156;23;20440;-88
2022/04/03 10:43:05;;;;;;;;;;;8.20;99.10;;;;;;6105560;23;20376;-87
2022/04/03 10:45:33;;;;;;;;;;;8.40;98.30;;;;;;6096464;23;19925;-88
2022/04/03 10:48:19;;;;;;;;;;;8.50;97.40;;;;;;6119075;23;19925;-87
2022/04/03 10:51:02;;;;;;;;;;;8.60;97.70;;;;;;6073507;23;19925;-86
2022/04/03 10:53:33;;;;;;;;;;;8.50;97.50;;;;;;6125069;23;20330;-85
2022/04/03 10:56:10;;;;;;;;;;;8.50;96.80;;;;;;6100273;23;19925;-90
2022/04/03 10:58:42;;;;;;;;;;;8.50;96.90;;;;;;6097464;23;19921;-86
2022/04/03 11:01:29;;;;;;;;;;;8.30;96.40;;;;;;6098416;23;19925;-86
2022/04/03 11:04:11;;;;;;;;;;;8.30;95.70;;;;;;6095893;23;19925;-88
2022/04/03 11:06:43;;;;;;;;;;;8.30;95.60;;;;;;6073799;23;19921;-90
2022/04/03 11:09:20;;;;;;;;;;;8.30;95.40;;;;;;6131967;23;20073;-85
2022/04/03 11:11:54;;;;;;;;;;;8.40;95.10;;;;;;6104724;23;19928;-88
2022/04/03 11:14:47;;;;;;;;;;;9.40;95.60;;;;;;6133028;23;19927;-85
2022/04/03 11:17:15;;;;;;;;;;;8.50;95.30;;;;;;6135739;23;19932;-86
2022/04/03 11:19:46;;;;;;;;;;;8.70;94.40;;;;;;6080953;23;19929;-88
2022/04/03 11:22:16;;;;;;;;;;;8.80;95.00;;;;;;6103833;23;19925;-89
2022/04/03 11:24:44;;;;;;;;;;;9.00;95.70;;;;;;6103653;23;19921;-88
2022/04/03 11:27:13;;;;;;;;;;;9.20;94.10;;;;;;6101885;23;19940;-87
2022/04/03 11:29:41;;;;;;;;;;;9.30;93.10;;;;;;6104548;23;19924;-88
2022/04/03 11:32:08;;;;;;;;;;;9.50;93.00;;;;;;6101728;23;19933;-88
2022/04/03 11:34:36;;;;;;;;;;;9.70;93.60;;;;;;6100214;23;19929;-88
2022/04/03 11:37:05;;;;;;;;;;;11.70;93.30;;;;;;6099595;23;19932;-87
2022/04/03 11:39:38;;;;;;;;;;;10.00;92.10;;;;;;6126107;23;19925;-86
2022/04/03 11:42:09;;;;;;;;;;;10.10;92.70;;;;;;6126173;23;19928;-86
2022/04/03 11:44:37;;;;;;;;;;;10.20;91.60;;;;;;6108744;23;20707;-86
2022/04/03 11:47:19;;;;;;;;;;;10.30;90.30;;;;;;6083405;23;19994;-86
2022/04/03 11:49:49;;;;;;;;;;;10.30;92.20;;;;;;6104706;23;20021;-87
2022/04/03 11:52:21;;;;;;;;;;;10.20;90.20;;;;;;6098494;23;19932;-85
2022/04/03 11:54:57;;;;;;;;;;;9.90;90.30;;;;;;6101133;23;19928;-86
2022/04/03 11:57:27;;;;;;;;;;;10.00;90.80;;;;;;6074091;23;19932;-86
2022/04/03 11:59:55;;;;;;;;;;;10.50;91.30;;;;;;6101146;23;20200;-87
2022/04/03 12:02:24;;;;;;;;;;;9.70;91.10;;;;;;6096623;23;20309;-85
2022/04/03 12:04:58;;;;;;;;;;;9.80;89.20;;;;;;6123143;23;19932;-87
2022/04/03 12:07:27;;;;;;;;;;;9.90;90.10;;;;;;6099060;23;19926;-87
2022/04/03 12:09:56;;;;;;;;;;;10.10;89.40;;;;;;6098268;23;19921;-86
2022/04/03 12:12:24;;;;;;;;;;;10.30;88.60;;;;;;6122008;23;19925;-87
2022/04/03 12:14:52;;;;;;;;;;;10.50;85.10;;;;;;6095397;23;19925;-86
2022/04/03 12:17:20;;;;;;;;;;;10.80;86.10;;;;;;6072650;23;20488;-86
2022/04/03 12:19:50;;;;;;;;;;;11.00;84.20;;;;;;6098687;23;19921;-87
2022/04/03 12:22:20;;;;;;;;;;;11.20;85.70;;;;;;6096667;23;19925;-85
2022/04/03 12:24:50;;;;;;;;;;;11.30;86.30;;;;;;6098487;23;20296;-86
2022/04/03 12:27:19;;;;;;;;;;;11.20;83.90;;;;;;6101752;23;19921;-88
2022/04/03 12:29:52;;;;;;;;;;;11.50;86.40;;;;;;6102704;23;19925;-88
2022/04/03 12:32:26;;;;;;;;;;;11.50;85.20;;;;;;6103511;23;19915;-88
2022/04/03 12:34:55;;;;;;;;;;;11.30;81.40;;;;;;6129393;23;19955;-87
2022/04/03 12:37:49;;;;;;;;;;;11.10;80.40;;;;;;6096481;23;20396;-89
2022/04/03 12:40:17;;;;;;;;;;;11.00;79.80;;;;;;6102963;23;19925;-90
2022/04/03 12:42:46;;;;;;;;;;;10.80;79.40;;;;;;6097983;23;19921;-89
2022/04/03 12:45:13;;;;;;;;;;;10.60;80.80;;;;;;6101736;23;19925;-86
2022/04/03 12:47:58;;;;;;;;;;;10.80;81.20;;;;;;6129831;23;20586;-85
2022/04/03 12:50:34;;;;;;;;;;;10.80;81.10;;;;;;6130473;23;19921;-86
2022/04/03 12:53:08;;;;;;;;;;;10.80;80.60;;;;;;6105642;23;19935;-89
2022/04/03 12:55:53;;;;;;;;;;;10.80;80.70;;;;;;6108250;23;19920;-86
2022/04/03 12:58:35;;;;;;;;;;;10.90;80.20;;;;;;6101822;23;19935;-89
2022/04/03 13:01:11;;;;;;;;;;;11.00;79.60;;;;;;6103520;23;19925;-89
2022/04/03 13:03:50;;;;;;;;;;;11.10;80.30;;;;;;6132742;23;19925;-89
2022/04/03 13:06:22;;;;;;;;;;;11.20;81.20;;;;;;6102617;23;19925;-90
2022/04/03 13:08:53;;;;;;;;;;;11.30;79.00;;;;;;6102026;23;20361;-89
2022/04/03 13:11:47;;;;;;;;;;;11.80;77.00;;;;;;6099493;23;19921;-89
2022/04/03 13:14:26;;;;;;;;;;;11.20;76.60;;;;;;6129170;23;19932;-89
2022/04/03 13:16:57;;;;;;;;;;;11.10;77.50;;;;;;6100894;23;19921;-87
2022/04/03 13:19:32;;;;;;;;;;;11.00;78.10;;;;;;6119854;23;19925;-88
2022/04/03 13:22:19;;;;;;;;;;;11.30;77.60;;;;;;6104875;23;19963;-92
2022/04/03 13:24:58;;;;;;;;;;;10.90;78.30;;;;;;6151253;23;19943;-90
2022/04/03 13:28:01;;;;;;;;;;;10.70;78.00;;;;;;6077424;23;19921;-89
2022/04/03 13:31:22;;;;;;;;;;;10.80;77.30;;;;;;6111987;23;19920;-90
2022/04/03 13:33:58;;;;;;;;;;;10.60;76.50;;;;;;6087138;23;19921;-89
2022/04/03 13:36:39;;;;;;;;;;;10.50;78.40;;;;;;6092656;23;19971;-91
2022/04/03 13:39:28;;;;;;;;;;;10.40;78.10;;;;;;6110674;23;19935;-90
2022/04/03 13:42:18;;;;;;;;;;;10.30;78.30;;;;;;6090956;23;19905;-90
2022/04/03 13:44:57;;;;;;;;;;;10.20;77.10;;;;;;6115856;23;19931;-90
2022/04/03 13:47:55;;;;;;;;;;;10.00;77.90;;;;;;6130244;23;19925;-89
2022/04/03 13:50:48;;;;;;;;;;;10.30;78.20;;;;;;6113109;23;19950;-88
2022/04/03 13:53:53;;;;;;;;;;;10.30;78.30;;;;;;6112229;23;19925;-89
2022/04/03 14:00:41;;;;;;;;;;;10.40;77.10;;;;;;6128101;23;19925;-89
2022/04/03 14:03:28;;;;;;;;;;;10.40;77.50;;;;;;6114420;23;20293;-90
2022/04/03 14:06:24;;;;;;;;;;;10.50;78.50;;;;;;6117504;23;19924;-89
2022/04/03 14:09:23;;;;;;;;;;;10.50;78.20;;;;;;6097688;23;19921;-90
2022/04/03 14:12:12;;;;;;;;;;;10.50;76.90;;;;;;6142364;23;19920;-89
2022/04/03 14:25:37;;;;;;;;;;;;;;;;;;;;;
2022/04/03 14:29:22;;;;;;;;;;;10.50;77.50;;;;;;6141366;23;19921;-85
2022/04/03 14:36:15;;;;;;;;;;;10.90;77.30;;;;;;6108659;23;19930;-84
2022/04/03 14:39:08;;;;;;;;;;;10.90;80.40;;;;;;6145766;23;19935;-84
2022/04/03 14:51:08;;;;;;;;;;;9.40;80.40;;;;;;5853700;24;19912;-87
2022/04/03 14:54:57;;;;;;;;;;;;;;;;;;;;;
2022/04/03 15:06:17;;;;;;;;;;;9.80;80.60;;;;;;5987157;24;19937;-86
2022/04/03 15:10:04;;;;;;;;;;;;;;;;;;;;;
2022/04/03 15:17:13;;;;;;;;;;;9.50;79.10;;;;;;5846483;24;19912;-82
2022/04/03 15:24:36;;;;;;;;;;;;;;;;;;;;;
2022/04/03 15:28:45;;;;;;;;;;;;;;;;;;;;;
2022/04/03 15:36:24;;;;;;;;;;;;;;;;;;;;;
2022/04/03 15:44:35;;;;;;;;;;;9.70;74.90;;;;;;5793897;24;20214;-85
2022/04/03 15:48:01;;;;;;;;;;;11.50;75.20;;;;;;5786404;24;20370;-85
2022/04/03 15:50:29;;;;;;;;;;;10.90;76.20;;;;;;5805704;24;19921;-85
2022/04/03 15:53:00;;;;;;;;;;;10.90;74.50;;;;;;5781924;24;20028;-84
2022/04/03 15:55:32;;;;;;;;;;;10.80;74.20;;;;;;5781971;24;19925;-84
2022/04/03 15:58:02;;;;;;;;;;;10.90;74.30;;;;;;5804554;24;19925;-83